LTBL/IGI METAR and TAF weather

Enter ICAO airport designator
Station Type Date Time Source
LTBL METAR 2021/09/16 09:50 UTC NOAA

LTBL 160950Z 36009KT 330V040 CAVOK 29/12 Q1016 NOSIG RMK RWY17 01008KT 330V040


Station Type Date Time Source
LTBL Decoded METAR 2021/09/16 09:50 UTC NOAA

Izmir / Cigli, Turkey (LTBL) 38-30N 027-01E 5M
Sep 16, 2021 - 05:50 AM EDT / 2021.09.16 0950 UTC
Wind: from the N (360 degrees) at 10 MPH (9 KT) (direction variable):0
Visibility: greater than 7 mile(s):0
Temperature: 84 F (29 C)
Dew Point: 53 F (12 C)
Relative Humidity: 34%
Pressure (altimeter): 30.00 in. Hg (1016 hPa)
ob: LTBL 160950Z 36009KT 330V040 CAVOK 29/12 Q1016 NOSIG RMK RWY17 01008KT 330V040
cycle: 10

Station Type Date Time Source
LTBL TAF UTC NOAA

Error!

Example: see airport list